sensor_id;sensor_type;location;lat;lon;timestamp;temperature;humidity
12060;DHT22;6091;51.432;6.880;2022-09-17T00:01:27;25.60;39.40
12060;DHT22;6091;51.432;6.880;2022-09-17T00:03:58;25.70;39.40
12060;DHT22;6091;51.432;6.880;2022-09-17T00:06:27;25.70;39.40
12060;DHT22;6091;51.432;6.880;2022-09-17T00:08:54;25.70;39.40
12060;DHT22;6091;51.432;6.880;2022-09-17T00:11:27;25.70;39.40
12060;DHT22;6091;51.432;6.880;2022-09-17T00:13:58;25.70;38.90
12060;DHT22;6091;51.432;6.880;2022-09-17T00:16:38;25.60;39.40
12060;DHT22;6091;51.432;6.880;2022-09-17T00:19:16;25.70;39.40
12060;DHT22;6091;51.432;6.880;2022-09-17T00:21:48;25.70;39.40
12060;DHT22;6091;51.432;6.880;2022-09-17T00:24:19;25.70;39.40
12060;DHT22;6091;51.432;6.880;2022-09-17T00:26:47;25.70;39.40
12060;DHT22;6091;51.432;6.880;2022-09-17T00:29:15;25.70;39.40
12060;DHT22;6091;51.432;6.880;2022-09-17T00:31:42;25.60;39.40
12060;DHT22;6091;51.432;6.880;2022-09-17T00:34:09;25.60;39.40
12060;DHT22;6091;51.432;6.880;2022-09-17T00:36:38;25.70;39.50
12060;DHT22;6091;51.432;6.880;2022-09-17T00:39:08;25.60;39.50
12060;DHT22;6091;51.432;6.880;2022-09-17T00:41:37;25.60;39.40
12060;DHT22;6091;51.432;6.880;2022-09-17T00:44:43;25.60;40.10
12060;DHT22;6091;51.432;6.880;2022-09-17T00:47:16;25.60;39.50
12060;DHT22;6091;51.432;6.880;2022-09-17T00:50:11;25.60;39.40
12060;DHT22;6091;51.432;6.880;2022-09-17T00:52:52;25.60;39.40
12060;DHT22;6091;51.432;6.880;2022-09-17T00:55:26;25.60;39.50
12060;DHT22;6091;51.432;6.880;2022-09-17T00:58:06;25.60;39.50
12060;DHT22;6091;51.432;6.880;2022-09-17T01:00:36;25.60;39.50
12060;DHT22;6091;51.432;6.880;2022-09-17T01:03:03;25.60;39.50
12060;DHT22;6091;51.432;6.880;2022-09-17T01:05:46;25.60;39.50
12060;DHT22;6091;51.432;6.880;2022-09-17T01:11:39;25.60;39.60
12060;DHT22;6091;51.432;6.880;2022-09-17T01:24:44;25.60;39.60
12060;DHT22;6091;51.432;6.880;2022-09-17T01:30:27;25.50;40.10
12060;DHT22;6091;51.432;6.880;2022-09-17T01:39:47;25.50;39.60
12060;DHT22;6091;51.432;6.880;2022-09-17T01:42:38;25.50;39.60
12060;DHT22;6091;51.432;6.880;2022-09-17T01:45:41;25.50;39.60
12060;DHT22;6091;51.432;6.880;2022-09-17T01:48:19;25.50;39.60
12060;DHT22;6091;51.432;6.880;2022-09-17T01:51:05;25.50;39.60
12060;DHT22;6091;51.432;6.880;2022-09-17T01:53:59;25.50;39.60
12060;DHT22;6091;51.432;6.880;2022-09-17T01:56:37;25.50;39.70
12060;DHT22;6091;51.432;6.880;2022-09-17T01:59:32;25.50;39.70
12060;DHT22;6091;51.432;6.880;2022-09-17T02:02:29;25.50;39.70
12060;DHT22;6091;51.432;6.880;2022-09-17T02:05:05;25.50;39.70
12060;DHT22;6091;51.432;6.880;2022-09-17T02:07:44;25.50;39.60
12060;DHT22;6091;51.432;6.880;2022-09-17T02:10:29;25.50;39.70
12060;DHT22;6091;51.432;6.880;2022-09-17T02:13:03;25.50;39.70
12060;DHT22;6091;51.432;6.880;2022-09-17T02:15:44;25.50;39.70
12060;DHT22;6091;51.432;6.880;2022-09-17T02:18:48;25.40;39.70
12060;DHT22;6091;51.432;6.880;2022-09-17T02:26:47;25.40;39.80
12060;DHT22;6091;51.432;6.880;2022-09-17T02:29:30;25.50;39.80
12060;DHT22;6091;51.432;6.880;2022-09-17T02:32:00;25.40;39.80
12060;DHT22;6091;51.432;6.880;2022-09-17T02:34:28;25.40;39.70
12060;DHT22;6091;51.432;6.880;2022-09-17T02:36:56;25.40;39.80
12060;DHT22;6091;51.432;6.880;2022-09-17T02:39:25;25.40;39.80
12060;DHT22;6091;51.432;6.880;2022-09-17T02:45:05;25.40;39.80
12060;DHT22;6091;51.432;6.880;2022-09-17T02:48:27;25.40;39.80
12060;DHT22;6091;51.432;6.880;2022-09-17T02:56:24;25.40;39.80
12060;DHT22;6091;51.432;6.880;2022-09-17T03:02:17;25.40;39.80
12060;DHT22;6091;51.432;6.880;2022-09-17T03:05:00;25.40;39.90
12060;DHT22;6091;51.432;6.880;2022-09-17T03:07:29;25.30;39.80
12060;DHT22;6091;51.432;6.880;2022-09-17T03:10:00;25.40;39.90
12060;DHT22;6091;51.432;6.880;2022-09-17T03:12:27;25.30;39.80
12060;DHT22;6091;51.432;6.880;2022-09-17T03:14:54;25.30;39.80
12060;DHT22;6091;51.432;6.880;2022-09-17T03:17:23;25.30;40.40
12060;DHT22;6091;51.432;6.880;2022-09-17T03:19:50;25.30;39.90
12060;DHT22;6091;51.432;6.880;2022-09-17T03:22:17;25.30;39.90
12060;DHT22;6091;51.432;6.880;2022-09-17T03:24:44;25.30;40.00
12060;DHT22;6091;51.432;6.880;2022-09-17T03:27:11;25.30;39.90
12060;DHT22;6091;51.432;6.880;2022-09-17T03:29:38;25.30;39.90
12060;DHT22;6091;51.432;6.880;2022-09-17T03:32:05;25.30;39.90
12060;DHT22;6091;51.432;6.880;2022-09-17T03:34:32;25.30;39.90
12060;DHT22;6091;51.432;6.880;2022-09-17T03:36:59;25.30;39.90
12060;DHT22;6091;51.432;6.880;2022-09-17T03:39:27;25.30;39.90
12060;DHT22;6091;51.432;6.880;2022-09-17T03:41:55;25.30;40.00
12060;DHT22;6091;51.432;6.880;2022-09-17T03:44:22;25.30;39.90
12060;DHT22;6091;51.432;6.880;2022-09-17T03:46:49;25.30;40.00
12060;DHT22;6091;51.432;6.880;2022-09-17T03:49:17;25.30;40.10
12060;DHT22;6091;51.432;6.880;2022-09-17T03:51:44;25.30;40.40
12060;DHT22;6091;51.432;6.880;2022-09-17T03:54:14;25.30;39.90
12060;DHT22;6091;51.432;6.880;2022-09-17T03:56:41;25.30;40.00
12060;DHT22;6091;51.432;6.880;2022-09-17T03:59:07;25.30;40.00
12060;DHT22;6091;51.432;6.880;2022-09-17T04:01:34;25.30;40.10
12060;DHT22;6091;51.432;6.880;2022-09-17T04:04:02;25.30;40.10
12060;DHT22;6091;51.432;6.880;2022-09-17T04:06:30;25.30;40.00
12060;DHT22;6091;51.432;6.880;2022-09-17T04:08:57;25.30;40.00
12060;DHT22;6091;51.432;6.880;2022-09-17T04:11:26;25.30;40.70
12060;DHT22;6091;51.432;6.880;2022-09-17T04:13:53;25.30;40.10
12060;DHT22;6091;51.432;6.880;2022-09-17T04:16:20;25.30;40.00
12060;DHT22;6091;51.432;6.880;2022-09-17T04:18:47;25.20;40.00
12060;DHT22;6091;51.432;6.880;2022-09-17T04:21:14;25.30;40.10
12060;DHT22;6091;51.432;6.880;2022-09-17T04:23:41;25.20;39.90
12060;DHT22;6091;51.432;6.880;2022-09-17T04:26:08;25.20;40.00
12060;DHT22;6091;51.432;6.880;2022-09-17T04:28:34;25.20;40.00
12060;DHT22;6091;51.432;6.880;2022-09-17T04:31:02;25.20;40.00
12060;DHT22;6091;51.432;6.880;2022-09-17T04:33:28;25.20;40.00
12060;DHT22;6091;51.432;6.880;2022-09-17T04:35:55;25.20;40.00
12060;DHT22;6091;51.432;6.880;2022-09-17T04:38:22;25.20;40.00
12060;DHT22;6091;51.432;6.880;2022-09-17T04:40:49;25.20;40.00
12060;DHT22;6091;51.432;6.880;2022-09-17T04:43:17;25.20;40.00
12060;DHT22;6091;51.432;6.880;2022-09-17T04:45:45;25.20;39.50
12060;DHT22;6091;51.432;6.880;2022-09-17T04:48:13;25.20;40.00
12060;DHT22;6091;51.432;6.880;2022-09-17T04:50:40;25.20;40.10
12060;DHT22;6091;51.432;6.880;2022-09-17T04:53:07;25.20;40.10
12060;DHT22;6091;51.432;6.880;2022-09-17T04:55:34;25.20;40.00
12060;DHT22;6091;51.432;6.880;2022-09-17T04:58:01;25.20;40.00
12060;DHT22;6091;51.432;6.880;2022-09-17T05:00:28;25.20;40.10
12060;DHT22;6091;51.432;6.880;2022-09-17T05:02:55;25.20;40.20
12060;DHT22;6091;51.432;6.880;2022-09-17T05:05:23;25.20;40.10
12060;DHT22;6091;51.432;6.880;2022-09-17T05:07:50;25.20;40.10
12060;DHT22;6091;51.432;6.880;2022-09-17T05:10:19;25.20;40.10
12060;DHT22;6091;51.432;6.880;2022-09-17T05:12:49;25.20;40.20
12060;DHT22;6091;51.432;6.880;2022-09-17T05:15:21;25.10;40.10
12060;DHT22;6091;51.432;6.880;2022-09-17T05:17:49;25.10;40.10
12060;DHT22;6091;51.432;6.880;2022-09-17T05:20:16;25.10;40.10
12060;DHT22;6091;51.432;6.880;2022-09-17T05:22:48;25.10;40.10
12060;DHT22;6091;51.432;6.880;2022-09-17T05:25:20;25.10;40.10
12060;DHT22;6091;51.432;6.880;2022-09-17T05:27:51;25.10;40.10
12060;DHT22;6091;51.432;6.880;2022-09-17T05:30:19;25.10;40.10
12060;DHT22;6091;51.432;6.880;2022-09-17T05:32:46;25.20;40.20
12060;DHT22;6091;51.432;6.880;2022-09-17T05:35:14;25.20;40.10
12060;DHT22;6091;51.432;6.880;2022-09-17T05:37:41;25.20;40.50
12060;DHT22;6091;51.432;6.880;2022-09-17T05:40:08;25.20;40.20
12060;DHT22;6091;51.432;6.880;2022-09-17T05:42:36;25.10;40.10
12060;DHT22;6091;51.432;6.880;2022-09-17T05:45:03;25.20;40.10
12060;DHT22;6091;51.432;6.880;2022-09-17T05:47:34;25.10;40.10
12060;DHT22;6091;51.432;6.880;2022-09-17T05:50:01;25.10;40.30
12060;DHT22;6091;51.432;6.880;2022-09-17T05:52:28;25.10;40.10
12060;DHT22;6091;51.432;6.880;2022-09-17T05:54:55;25.10;40.00
12060;DHT22;6091;51.432;6.880;2022-09-17T05:57:23;25.10;40.10
12060;DHT22;6091;51.432;6.880;2022-09-17T05:59:50;25.10;40.10
12060;DHT22;6091;51.432;6.880;2022-09-17T06:02:17;25.20;40.10
12060;DHT22;6091;51.432;6.880;2022-09-17T06:04:45;25.10;40.10
12060;DHT22;6091;51.432;6.880;2022-09-17T06:07:12;25.10;39.60
12060;DHT22;6091;51.432;6.880;2022-09-17T06:09:39;25.00;40.10
12060;DHT22;6091;51.432;6.880;2022-09-17T06:12:08;25.10;40.20
12060;DHT22;6091;51.432;6.880;2022-09-17T06:14:35;25.10;40.20
12060;DHT22;6091;51.432;6.880;2022-09-17T06:17:05;22.10;37.80
12060;DHT22;6091;51.432;6.880;2022-09-17T06:19:32;25.00;40.20
12060;DHT22;6091;51.432;6.880;2022-09-17T06:22:03;25.10;40.20
12060;DHT22;6091;51.432;6.880;2022-09-17T06:24:31;25.00;40.40
12060;DHT22;6091;51.432;6.880;2022-09-17T06:26:58;25.00;40.20
12060;DHT22;6091;51.432;6.880;2022-09-17T06:29:25;25.00;40.20
12060;DHT22;6091;51.432;6.880;2022-09-17T06:31:53;25.00;40.20
12060;DHT22;6091;51.432;6.880;2022-09-17T06:34:21;25.00;40.20
12060;DHT22;6091;51.432;6.880;2022-09-17T06:36:48;25.00;40.20
12060;DHT22;6091;51.432;6.880;2022-09-17T06:39:15;25.00;40.20
12060;DHT22;6091;51.432;6.880;2022-09-17T06:41:42;25.00;40.20
12060;DHT22;6091;51.432;6.880;2022-09-17T06:44:12;25.10;40.20
12060;DHT22;6091;51.432;6.880;2022-09-17T06:46:39;25.10;40.50
12060;DHT22;6091;51.432;6.880;2022-09-17T06:49:06;25.10;40.20
12060;DHT22;6091;51.432;6.880;2022-09-17T06:51:33;25.10;40.20
12060;DHT22;6091;51.432;6.880;2022-09-17T06:54:00;25.10;40.20
12060;DHT22;6091;51.432;6.880;2022-09-17T06:56:27;25.10;40.20
12060;DHT22;6091;51.432;6.880;2022-09-17T06:58:54;25.00;40.10
12060;DHT22;6091;51.432;6.880;2022-09-17T07:01:21;25.10;40.50
12060;DHT22;6091;51.432;6.880;2022-09-17T07:03:48;25.10;40.20
12060;DHT22;6091;51.432;6.880;2022-09-17T07:06:15;25.10;40.20
12060;DHT22;6091;51.432;6.880;2022-09-17T07:08:43;25.10;40.30
12060;DHT22;6091;51.432;6.880;2022-09-17T07:11:10;25.10;40.50
12060;DHT22;6091;51.432;6.880;2022-09-17T07:13:37;25.20;40.20
12060;DHT22;6091;51.432;6.880;2022-09-17T07:16:06;25.10;40.10
12060;DHT22;6091;51.432;6.880;2022-09-17T07:18:35;25.10;40.10
12060;DHT22;6091;51.432;6.880;2022-09-17T07:21:04;25.10;40.10
12060;DHT22;6091;51.432;6.880;2022-09-17T07:23:34;25.10;40.20
12060;DHT22;6091;51.432;6.880;2022-09-17T07:26:09;25.10;40.30
12060;DHT22;6091;51.432;6.880;2022-09-17T07:28:40;25.10;40.30
12060;DHT22;6091;51.432;6.880;2022-09-17T07:31:07;25.10;39.80
12060;DHT22;6091;51.432;6.880;2022-09-17T07:33:41;25.10;40.50
12060;DHT22;6091;51.432;6.880;2022-09-17T07:36:14;25.10;40.50
12060;DHT22;6091;51.432;6.880;2022-09-17T07:38:43;25.10;40.50
12060;DHT22;6091;51.432;6.880;2022-09-17T07:41:13;25.10;40.60
12060;DHT22;6091;51.432;6.880;2022-09-17T07:43:42;25.10;40.60
12060;DHT22;6091;51.432;6.880;2022-09-17T07:46:15;25.10;40.60
12060;DHT22;6091;51.432;6.880;2022-09-17T07:48:43;25.10;40.70
12060;DHT22;6091;51.432;6.880;2022-09-17T07:51:25;25.10;40.60
12060;DHT22;6091;51.432;6.880;2022-09-17T07:53:57;25.20;40.80
12060;DHT22;6091;51.432;6.880;2022-09-17T07:56:26;25.20;40.70
12060;DHT22;6091;51.432;6.880;2022-09-17T07:58:54;25.20;40.60
12060;DHT22;6091;51.432;6.880;2022-09-17T08:01:21;25.20;40.60
12060;DHT22;6091;51.432;6.880;2022-09-17T08:03:50;25.20;40.10
12060;DHT22;6091;51.432;6.880;2022-09-17T08:06:21;25.20;40.70
12060;DHT22;6091;51.432;6.880;2022-09-17T08:08:51;25.20;40.70
12060;DHT22;6091;51.432;6.880;2022-09-17T08:11:20;25.20;40.80
12060;DHT22;6091;51.432;6.880;2022-09-17T08:14:11;25.20;40.70
12060;DHT22;6091;51.432;6.880;2022-09-17T08:16:40;25.20;40.70
12060;DHT22;6091;51.432;6.880;2022-09-17T08:19:08;25.30;40.80
12060;DHT22;6091;51.432;6.880;2022-09-17T08:21:36;25.30;40.70
12060;DHT22;6091;51.432;6.880;2022-09-17T08:24:04;25.30;41.10
12060;DHT22;6091;51.432;6.880;2022-09-17T08:26:31;25.30;40.70
12060;DHT22;6091;51.432;6.880;2022-09-17T08:28:58;25.30;40.60
12060;DHT22;6091;51.432;6.880;2022-09-17T08:31:26;25.30;40.50
12060;DHT22;6091;51.432;6.880;2022-09-17T08:33:56;25.30;40.90
12060;DHT22;6091;51.432;6.880;2022-09-17T08:36:23;25.40;40.50
12060;DHT22;6091;51.432;6.880;2022-09-17T08:38:53;25.40;40.60
12060;DHT22;6091;51.432;6.880;2022-09-17T08:44:26;25.40;40.30
12060;DHT22;6091;51.432;6.880;2022-09-17T08:47:32;25.50;40.30
12060;DHT22;6091;51.432;6.880;2022-09-17T08:50:06;25.50;40.30
12060;DHT22;6091;51.432;6.880;2022-09-17T08:53:17;25.50;40.30
12060;DHT22;6091;51.432;6.880;2022-09-17T08:56:00;25.50;40.20
12060;DHT22;6091;51.432;6.880;2022-09-17T09:07:19;25.50;40.00
12060;DHT22;6091;51.432;6.880;2022-09-17T09:10:24;25.50;40.10
12060;DHT22;6091;51.432;6.880;2022-09-17T09:12:58;25.50;40.00
12060;DHT22;6091;51.432;6.880;2022-09-17T09:24:23;25.60;39.80
12060;DHT22;6091;51.432;6.880;2022-09-17T09:29:45;25.60;39.90
12060;DHT22;6091;51.432;6.880;2022-09-17T09:35:19;25.60;39.70
12060;DHT22;6091;51.432;6.880;2022-09-17T09:38:14;25.60;39.70
12060;DHT22;6091;51.432;6.880;2022-09-17T09:41:07;25.70;39.70
12060;DHT22;6091;51.432;6.880;2022-09-17T09:52:55;25.70;39.50
12060;DHT22;6091;51.432;6.880;2022-09-17T09:55:50;25.70;39.40
12060;DHT22;6091;51.432;6.880;2022-09-17T10:03:42;25.70;39.40
12060;DHT22;6091;51.432;6.880;2022-09-17T10:06:15;25.70;39.50
12060;DHT22;6091;51.432;6.880;2022-09-17T10:11:21;25.80;39.30
12060;DHT22;6091;51.432;6.880;2022-09-17T10:13:50;25.80;39.30
12060;DHT22;6091;51.432;6.880;2022-09-17T10:16:21;25.80;39.30
12060;DHT22;6091;51.432;6.880;2022-09-17T10:21:33;25.90;38.90
12060;DHT22;6091;51.432;6.880;2022-09-17T10:24:03;25.80;39.30
12060;DHT22;6091;51.432;6.880;2022-09-17T10:26:38;25.80;39.20
12060;DHT22;6091;51.432;6.880;2022-09-17T10:29:12;25.80;38.60
12060;DHT22;6091;51.432;6.880;2022-09-17T10:31:51;25.80;38.90
12060;DHT22;6091;51.432;6.880;2022-09-17T10:34:30;25.90;38.90
12060;DHT22;6091;51.432;6.880;2022-09-17T10:36:58;25.90;39.10
12060;DHT22;6091;51.432;6.880;2022-09-17T10:42:11;26.00;39.10
12060;DHT22;6091;51.432;6.880;2022-09-17T10:44:50;26.00;39.00
12060;DHT22;6091;51.432;6.880;2022-09-17T10:47:35;26.10;38.60
12060;DHT22;6091;51.432;6.880;2022-09-17T10:50:16;26.10;38.60
12060;DHT22;6091;51.432;6.880;2022-09-17T10:52:54;26.20;38.40
12060;DHT22;6091;51.432;6.880;2022-09-17T10:58:42;26.20;38.40
12060;DHT22;6091;51.432;6.880;2022-09-17T11:01:49;26.20;38.60
12060;DHT22;6091;51.432;6.880;2022-09-17T11:08:02;26.50;38.60
12060;DHT22;6091;51.432;6.880;2022-09-17T11:29:15;26.70;37.80
12060;DHT22;6091;51.432;6.880;2022-09-17T11:32:20;26.70;37.90
12060;DHT22;6091;51.432;6.880;2022-09-17T11:35:20;26.60;38.10
12060;DHT22;6091;51.432;6.880;2022-09-17T11:38:23;26.60;37.90
12060;DHT22;6091;51.432;6.880;2022-09-17T11:41:27;26.60;37.90
12060;DHT22;6091;51.432;6.880;2022-09-17T11:44:16;26.50;37.90
12060;DHT22;6091;51.432;6.880;2022-09-17T11:49:45;26.40;38.00
12060;DHT22;6091;51.432;6.880;2022-09-17T11:52:43;26.40;38.00
12060;DHT22;6091;51.432;6.880;2022-09-17T11:58:31;26.40;38.00
12060;DHT22;6091;51.432;6.880;2022-09-17T12:01:33;26.40;38.20
12060;DHT22;6091;51.432;6.880;2022-09-17T12:04:34;26.50;38.50
12060;DHT22;6091;51.432;6.880;2022-09-17T12:10:23;26.80;39.20
12060;DHT22;6091;51.432;6.880;2022-09-17T12:19:00;27.40;38.20
12060;DHT22;6091;51.432;6.880;2022-09-17T12:21:44;27.50;38.10
12060;DHT22;6091;51.432;6.880;2022-09-17T12:24:27;27.50;37.60
12060;DHT22;6091;51.432;6.880;2022-09-17T12:30:31;27.50;37.30
12060;DHT22;6091;51.432;6.880;2022-09-17T12:33:31;27.40;37.10
12060;DHT22;6091;51.432;6.880;2022-09-17T12:39:18;27.30;37.30
12060;DHT22;6091;51.432;6.880;2022-09-17T12:42:06;27.30;37.80
12060;DHT22;6091;51.432;6.880;2022-09-17T12:53:53;28.00;38.20
12060;DHT22;6091;51.432;6.880;2022-09-17T12:56:45;28.20;38.60
12060;DHT22;6091;51.432;6.880;2022-09-17T12:59:45;28.50;38.50
12060;DHT22;6091;51.432;6.880;2022-09-17T13:02:30;28.80;38.40
12060;DHT22;6091;51.432;6.880;2022-09-17T13:17:06;29.30;36.30
12060;DHT22;6091;51.432;6.880;2022-09-17T13:20:04;29.20;36.40
12060;DHT22;6091;51.432;6.880;2022-09-17T13:22:49;29.20;36.00
12060;DHT22;6091;51.432;6.880;2022-09-17T13:25:19;29.00;36.00
12060;DHT22;6091;51.432;6.880;2022-09-17T13:27:48;28.90;35.90
12060;DHT22;6091;51.432;6.880;2022-09-17T13:30:18;28.80;35.90
12060;DHT22;6091;51.432;6.880;2022-09-17T13:32:52;28.70;36.00
12060;DHT22;6091;51.432;6.880;2022-09-17T13:40:30;28.30;35.50
12060;DHT22;6091;51.432;6.880;2022-09-17T13:45:29;28.10;35.80
12060;DHT22;6091;51.432;6.880;2022-09-17T13:48:07;28.10;35.90
12060;DHT22;6091;51.432;6.880;2022-09-17T13:50:40;27.90;35.70
12060;DHT22;6091;51.432;6.880;2022-09-17T13:55:50;27.80;35.80
12060;DHT22;6091;51.432;6.880;2022-09-17T13:58:24;27.70;35.80
12060;DHT22;6091;51.432;6.880;2022-09-17T14:01:10;27.60;35.80
12060;DHT22;6091;51.432;6.880;2022-09-17T14:13:50;27.30;36.10
12060;DHT22;6091;51.432;6.880;2022-09-17T14:21:42;27.10;36.20
12060;DHT22;6091;51.432;6.880;2022-09-17T14:24:34;27.10;36.30
12060;DHT22;6091;51.432;6.880;2022-09-17T14:30:10;27.10;36.30
12060;DHT22;6091;51.432;6.880;2022-09-17T14:33:22;27.10;36.40
12060;DHT22;6091;51.432;6.880;2022-09-17T14:36:07;27.10;36.40
12060;DHT22;6091;51.432;6.880;2022-09-17T14:43:44;27.00;36.40
12060;DHT22;6091;51.432;6.880;2022-09-17T14:46:42;27.00;36.50
12060;DHT22;6091;51.432;6.880;2022-09-17T14:49:29;27.00;36.50
12060;DHT22;6091;51.432;6.880;2022-09-17T14:52:00;27.00;36.50
12060;DHT22;6091;51.432;6.880;2022-09-17T14:54:29;26.90;36.40
12060;DHT22;6091;51.432;6.880;2022-09-17T14:59:51;26.90;36.50
12060;DHT22;6091;51.432;6.880;2022-09-17T15:02:38;26.90;36.50
12060;DHT22;6091;51.432;6.880;2022-09-17T15:05:38;26.80;36.40
12060;DHT22;6091;51.432;6.880;2022-09-17T15:08:12;26.80;36.40
12060;DHT22;6091;51.432;6.880;2022-09-17T15:13:50;26.80;37.10
12060;DHT22;6091;51.432;6.880;2022-09-17T15:16:24;26.70;36.50
12060;DHT22;6091;51.432;6.880;2022-09-17T15:18:58;26.70;36.60
12060;DHT22;6091;51.432;6.880;2022-09-17T15:29:44;26.60;36.70
12060;DHT22;6091;51.432;6.880;2022-09-17T15:32:15;26.60;36.70
12060;DHT22;6091;51.432;6.880;2022-09-17T15:34:42;26.70;37.10
12060;DHT22;6091;51.432;6.880;2022-09-17T15:37:20;26.60;36.70
12060;DHT22;6091;51.432;6.880;2022-09-17T15:39:52;26.60;36.80
12060;DHT22;6091;51.432;6.880;2022-09-17T15:42:29;26.50;36.70
12060;DHT22;6091;51.432;6.880;2022-09-17T15:45:27;26.50;36.80
12060;DHT22;6091;51.432;6.880;2022-09-17T15:48:03;26.50;36.80
12060;DHT22;6091;51.432;6.880;2022-09-17T15:50:52;26.50;36.80
12060;DHT22;6091;51.432;6.880;2022-09-17T15:53:28;26.50;36.80
12060;DHT22;6091;51.432;6.880;2022-09-17T15:56:00;26.50;37.40
12060;DHT22;6091;51.432;6.880;2022-09-17T16:08:50;26.40;36.90
12060;DHT22;6091;51.432;6.880;2022-09-17T16:11:23;26.40;36.80
12060;DHT22;6091;51.432;6.880;2022-09-17T16:13:57;26.40;36.80
12060;DHT22;6091;51.432;6.880;2022-09-17T16:16:36;26.30;37.00
12060;DHT22;6091;51.432;6.880;2022-09-17T16:19:04;26.30;36.20
12060;DHT22;6091;51.432;6.880;2022-09-17T16:21:32;26.30;36.80
12060;DHT22;6091;51.432;6.880;2022-09-17T16:23:59;26.30;36.80
12060;DHT22;6091;51.432;6.880;2022-09-17T16:26:31;26.30;36.90
12060;DHT22;6091;51.432;6.880;2022-09-17T16:29:06;26.20;37.00
12060;DHT22;6091;51.432;6.880;2022-09-17T16:31:38;26.20;37.10
12060;DHT22;6091;51.432;6.880;2022-09-17T16:34:05;26.20;37.10
12060;DHT22;6091;51.432;6.880;2022-09-17T16:36:32;26.20;37.30
12060;DHT22;6091;51.432;6.880;2022-09-17T16:38:59;26.20;37.30
12060;DHT22;6091;51.432;6.880;2022-09-17T16:41:26;26.20;37.30
12060;DHT22;6091;51.432;6.880;2022-09-17T16:43:53;26.10;37.30
12060;DHT22;6091;51.432;6.880;2022-09-17T16:46:21;26.10;37.40
12060;DHT22;6091;51.432;6.880;2022-09-17T16:48:50;26.10;37.30
12060;DHT22;6091;51.432;6.880;2022-09-17T16:51:18;26.10;37.40
12060;DHT22;6091;51.432;6.880;2022-09-17T16:53:45;26.10;37.30
12060;DHT22;6091;51.432;6.880;2022-09-17T16:56:13;26.10;37.30
12060;DHT22;6091;51.432;6.880;2022-09-17T16:58:41;26.10;37.30
12060;DHT22;6091;51.432;6.880;2022-09-17T17:01:12;26.00;37.30
12060;DHT22;6091;51.432;6.880;2022-09-17T17:03:41;26.00;37.30
12060;DHT22;6091;51.432;6.880;2022-09-17T17:06:16;26.00;37.30
12060;DHT22;6091;51.432;6.880;2022-09-17T17:08:44;26.00;37.50
12060;DHT22;6091;51.432;6.880;2022-09-17T17:11:12;26.00;37.40
12060;DHT22;6091;51.432;6.880;2022-09-17T17:13:43;26.00;37.40
12060;DHT22;6091;51.432;6.880;2022-09-17T17:16:13;26.00;37.50
12060;DHT22;6091;51.432;6.880;2022-09-17T17:18:41;25.90;37.40
12060;DHT22;6091;51.432;6.880;2022-09-17T17:21:11;25.90;36.80
12060;DHT22;6091;51.432;6.880;2022-09-17T17:23:39;25.90;37.50
12060;DHT22;6091;51.432;6.880;2022-09-17T17:26:09;25.90;36.90
12060;DHT22;6091;51.432;6.880;2022-09-17T17:28:38;25.80;37.40
12060;DHT22;6091;51.432;6.880;2022-09-17T17:31:08;25.80;37.50
12060;DHT22;6091;51.432;6.880;2022-09-17T17:33:37;25.80;37.50
12060;DHT22;6091;51.432;6.880;2022-09-17T17:36:05;25.80;37.60
12060;DHT22;6091;51.432;6.880;2022-09-17T17:38:35;25.80;37.50
12060;DHT22;6091;51.432;6.880;2022-09-17T17:43:34;25.70;36.90
12060;DHT22;6091;51.432;6.880;2022-09-17T17:46:08;25.70;37.80
12060;DHT22;6091;51.432;6.880;2022-09-17T17:48:36;25.70;37.60
12060;DHT22;6091;51.432;6.880;2022-09-17T17:51:08;25.70;37.60
12060;DHT22;6091;51.432;6.880;2022-09-17T17:53:36;25.70;37.60
12060;DHT22;6091;51.432;6.880;2022-09-17T17:56:07;25.70;37.60
12060;DHT22;6091;51.432;6.880;2022-09-17T17:58:36;25.70;37.70
12060;DHT22;6091;51.432;6.880;2022-09-17T18:01:29;25.70;37.70
12060;DHT22;6091;51.432;6.880;2022-09-17T18:04:02;25.70;38.30
12060;DHT22;6091;51.432;6.880;2022-09-17T18:06:30;25.60;37.70
12060;DHT22;6091;51.432;6.880;2022-09-17T18:08:57;25.70;37.90
12060;DHT22;6091;51.432;6.880;2022-09-17T18:11:25;25.60;37.70
12060;DHT22;6091;51.432;6.880;2022-09-17T18:13:54;25.60;37.70
12060;DHT22;6091;51.432;6.880;2022-09-17T18:16:23;25.60;37.80
12060;DHT22;6091;51.432;6.880;2022-09-17T18:18:50;25.60;37.80
12060;DHT22;6091;51.432;6.880;2022-09-17T18:21:20;25.60;37.80
12060;DHT22;6091;51.432;6.880;2022-09-17T18:23:49;25.50;37.80
12060;DHT22;6091;51.432;6.880;2022-09-17T18:26:19;25.50;37.80
12060;DHT22;6091;51.432;6.880;2022-09-17T18:28:48;25.50;37.80
12060;DHT22;6091;51.432;6.880;2022-09-17T18:31:29;25.50;37.80
12060;DHT22;6091;51.432;6.880;2022-09-17T18:34:02;25.50;38.00
12060;DHT22;6091;51.432;6.880;2022-09-17T18:36:34;25.50;37.90
12060;DHT22;6091;51.432;6.880;2022-09-17T18:39:05;25.50;37.90
12060;DHT22;6091;51.432;6.880;2022-09-17T18:41:53;25.50;37.90
12060;DHT22;6091;51.432;6.880;2022-09-17T18:44:20;25.50;38.00
12060;DHT22;6091;51.432;6.880;2022-09-17T18:46:48;25.50;37.90
12060;DHT22;6091;51.432;6.880;2022-09-17T18:49:17;25.50;37.90
12060;DHT22;6091;51.432;6.880;2022-09-17T18:51:47;25.50;37.90
12060;DHT22;6091;51.432;6.880;2022-09-17T18:54:14;25.40;38.00
12060;DHT22;6091;51.432;6.880;2022-09-17T18:56:41;25.50;38.00
12060;DHT22;6091;51.432;6.880;2022-09-17T18:59:08;25.50;38.00
12060;DHT22;6091;51.432;6.880;2022-09-17T19:01:36;25.40;38.00
12060;DHT22;6091;51.432;6.880;2022-09-17T19:04:03;25.50;38.10
12060;DHT22;6091;51.432;6.880;2022-09-17T19:06:33;25.40;38.00
12060;DHT22;6091;51.432;6.880;2022-09-17T19:09:02;25.40;38.00
12060;DHT22;6091;51.432;6.880;2022-09-17T19:11:30;25.40;38.00
12060;DHT22;6091;51.432;6.880;2022-09-17T19:13:57;25.40;38.00
12060;DHT22;6091;51.432;6.880;2022-09-17T19:16:24;25.40;38.10
12060;DHT22;6091;51.432;6.880;2022-09-17T19:18:51;25.40;38.10
12060;DHT22;6091;51.432;6.880;2022-09-17T19:21:19;25.40;38.10
12060;DHT22;6091;51.432;6.880;2022-09-17T19:23:49;25.40;38.10
12060;DHT22;6091;51.432;6.880;2022-09-17T19:26:19;25.40;38.10
12060;DHT22;6091;51.432;6.880;2022-09-17T19:28:53;25.40;38.40
12060;DHT22;6091;51.432;6.880;2022-09-17T19:31:21;25.40;38.20
12060;DHT22;6091;51.432;6.880;2022-09-17T19:33:49;25.40;38.20
12060;DHT22;6091;51.432;6.880;2022-09-17T19:36:18;25.40;38.20
12060;DHT22;6091;51.432;6.880;2022-09-17T19:38:46;25.40;38.20
12060;DHT22;6091;51.432;6.880;2022-09-17T19:41:16;25.40;38.50
12060;DHT22;6091;51.432;6.880;2022-09-17T19:43:50;25.40;38.20
12060;DHT22;6091;51.432;6.880;2022-09-17T19:46:21;25.30;38.30
12060;DHT22;6091;51.432;6.880;2022-09-17T19:48:54;25.30;38.20
12060;DHT22;6091;51.432;6.880;2022-09-17T19:51:24;25.40;38.30
12060;DHT22;6091;51.432;6.880;2022-09-17T19:53:54;25.40;38.30
12060;DHT22;6091;51.432;6.880;2022-09-17T19:56:23;25.30;38.20
12060;DHT22;6091;51.432;6.880;2022-09-17T19:58:52;25.30;38.20
12060;DHT22;6091;51.432;6.880;2022-09-17T20:01:19;25.30;38.20
12060;DHT22;6091;51.432;6.880;2022-09-17T20:03:46;25.30;38.30